createdAt,value
2018-07-02T00:00:46.719Z,35.33
2018-07-02T00:03:12.689Z,35.99
2018-07-02T00:05:38.653Z,35.51
2018-07-02T00:08:04.639Z,35.85
2018-07-02T00:10:30.616Z,34.65
2018-07-02T00:12:56.609Z,35.22
2018-07-02T00:15:22.593Z,35.46
2018-07-02T00:17:48.563Z,35.79
2018-07-02T00:20:14.545Z,35.70
2018-07-02T00:22:40.538Z,35.85
2018-07-02T00:25:06.604Z,35.89
2018-07-02T00:27:32.635Z,35.01
2018-07-02T00:29:58.593Z,35.37
2018-07-02T00:32:24.559Z,35.30
2018-07-02T00:34:50.527Z,35.27
2018-07-02T00:37:16.516Z,35.99
2018-07-02T00:39:42.515Z,35.85
2018-07-02T00:42:08.487Z,35.02
2018-07-02T00:44:34.476Z,35.37
2018-07-02T00:47:00.459Z,36.52
2018-07-02T00:49:26.430Z,35.86
2018-07-02T00:51:52.426Z,36.02
2018-07-02T00:54:18.410Z,36.01
2018-07-02T00:56:44.386Z,35.94
2018-07-02T00:59:10.364Z,35.82
2018-07-02T01:01:36.327Z,35.37
2018-07-02T01:04:02.310Z,36.01
2018-07-02T01:06:28.275Z,35.05
2018-07-02T01:08:54.254Z,35.74
2018-07-02T01:11:20.231Z,35.31
2018-07-02T01:13:46.208Z,35.78
2018-07-02T01:16:12.180Z,35.29
2018-07-02T01:18:38.157Z,35.62
2018-07-02T01:21:04.127Z,35.56
2018-07-02T01:23:30.043Z,35.67
2018-07-02T01:25:56.034Z,35.56
2018-07-02T01:28:22.044Z,35.53
2018-07-02T01:30:48.004Z,36.37
2018-07-02T01:33:14.029Z,36.05
2018-07-02T01:35:40.009Z,35.57
2018-07-02T01:38:06.060Z,36.34
2018-07-02T01:40:32.087Z,36.07
2018-07-02T01:42:58.080Z,36.02
2018-07-02T01:45:24.067Z,35.57
2018-07-02T01:47:50.035Z,35.81
2018-07-02T01:50:16.032Z,35.60
2018-07-02T01:52:42.819Z,36.43
2018-07-02T01:55:08.818Z,35.78
2018-07-02T01:57:34.807Z,36.32
2018-07-02T02:00:00.797Z,35.85
2018-07-02T02:02:26.774Z,36.49
2018-07-02T02:04:52.767Z,36.80
2018-07-02T02:07:18.816Z,36.23
2018-07-02T02:09:44.823Z,36.67
2018-07-02T02:12:10.886Z,37.13
2018-07-02T02:14:36.852Z,37.25
2018-07-02T02:17:02.935Z,36.99
2018-07-02T02:19:28.897Z,36.95
2018-07-02T02:21:54.867Z,37.23
2018-07-02T02:24:20.841Z,35.99
2018-07-02T02:26:46.838Z,36.04
2018-07-02T02:29:12.811Z,36.64
2018-07-02T02:31:38.747Z,36.11
2018-07-02T02:34:04.723Z,35.96
2018-07-02T02:36:30.702Z,35.86
2018-07-02T02:38:56.684Z,36.70
2018-07-02T02:41:22.686Z,36.59
2018-07-02T02:43:48.647Z,37.32
2018-07-02T02:46:14.619Z,37.47
2018-07-02T02:48:40.590Z,36.75
2018-07-02T02:51:06.597Z,37.50
2018-07-02T02:53:32.570Z,37.34
2018-07-02T02:55:58.594Z,37.07
2018-07-02T02:58:24.568Z,37.51
2018-07-02T03:00:50.504Z,37.14
2018-07-02T03:03:16.632Z,37.65
2018-07-02T03:05:42.680Z,36.98
2018-07-02T03:08:08.664Z,37.98
2018-07-02T03:10:34.656Z,38.05
2018-07-02T03:13:00.620Z,37.07
2018-07-02T03:15:26.593Z,37.97
2018-07-02T03:17:52.640Z,37.75
2018-07-02T03:20:18.669Z,37.15
2018-07-02T03:22:44.596Z,37.82
2018-07-02T03:25:10.564Z,37.01
2018-07-02T03:27:36.551Z,37.33
2018-07-02T03:30:02.561Z,37.40
2018-07-02T03:32:28.547Z,38.02
2018-07-02T03:34:54.559Z,38.52
2018-07-02T03:37:20.524Z,37.78
2018-07-02T03:39:46.512Z,38.06
2018-07-02T03:42:12.583Z,38.33
2018-07-02T03:44:38.580Z,38.25
2018-07-02T03:47:04.567Z,38.11
2018-07-02T03:49:30.519Z,38.32
2018-07-02T03:51:56.535Z,38.24
2018-07-02T03:54:22.479Z,37.68
2018-07-02T03:56:48.456Z,38.71
2018-07-02T03:59:14.423Z,38.09
2018-07-02T04:01:40.392Z,38.16
2018-07-02T04:04:06.342Z,38.54
2018-07-02T04:06:32.381Z,38.26
2018-07-02T04:08:58.359Z,38.25
2018-07-02T04:11:24.350Z,38.01
2018-07-02T04:13:50.332Z,38.91
2018-07-02T04:16:16.319Z,38.53
2018-07-02T04:18:42.330Z,37.89
2018-07-02T04:21:08.304Z,38.78
2018-07-02T04:23:34.385Z,38.45
2018-07-02T04:26:00.434Z,38.02
2018-07-02T04:28:26.363Z,38.01
2018-07-02T04:30:52.343Z,39.10
2018-07-02T04:33:18.346Z,38.58
2018-07-02T04:35:44.331Z,37.83
2018-07-02T04:38:10.329Z,38.26
2018-07-02T04:40:36.308Z,39.24
2018-07-02T04:43:02.309Z,37.69
2018-07-02T04:45:28.374Z,38.43
2018-07-02T04:47:54.372Z,38.13
2018-07-02T04:50:20.379Z,38.66
2018-07-02T04:52:46.369Z,38.24
2018-07-02T04:55:12.364Z,38.21
2018-07-02T04:57:38.361Z,37.71
2018-07-02T05:00:04.342Z,38.30
2018-07-02T05:02:30.330Z,38.19
2018-07-02T05:04:56.298Z,38.33
2018-07-02T05:07:22.350Z,37.66
2018-07-02T05:09:48.324Z,37.81
2018-07-02T05:12:14.421Z,38.79
2018-07-02T05:14:40.374Z,38.54
2018-07-02T05:17:06.345Z,37.02
2018-07-02T05:19:32.318Z,38.22
2018-07-02T05:21:58.288Z,38.51
2018-07-02T05:24:24.294Z,37.97
2018-07-02T05:26:50.288Z,38.47
2018-07-02T05:29:16.287Z,38.53
2018-07-02T05:31:42.265Z,38.03
2018-07-02T05:34:08.245Z,38.02
2018-07-02T05:36:34.280Z,38.32
2018-07-02T05:39:00.271Z,37.91
2018-07-02T05:41:26.247Z,37.40
2018-07-02T05:43:52.215Z,38.32
2018-07-02T05:46:18.527Z,37.96
2018-07-02T05:48:44.504Z,37.96
2018-07-02T05:51:10.494Z,38.48
2018-07-02T05:53:36.471Z,38.86
2018-07-02T05:56:02.451Z,39.31
2018-07-02T05:58:28.437Z,39.41
2018-07-02T06:00:54.516Z,38.97
2018-07-02T06:03:20.486Z,39.55
2018-07-02T06:05:46.531Z,39.35
2018-07-02T06:08:12.565Z,40.23
2018-07-02T06:10:38.685Z,39.82
2018-07-02T06:13:04.668Z,39.38
2018-07-02T06:15:30.664Z,39.52
2018-07-02T06:17:56.680Z,40.29
2018-07-02T06:20:22.685Z,38.81
2018-07-02T06:22:48.652Z,39.83
2018-07-02T06:25:15.437Z,38.88
2018-07-02T06:27:41.483Z,39.32
2018-07-02T06:30:07.482Z,39.31
2018-07-02T06:32:33.457Z,40.22
2018-07-02T06:34:59.419Z,39.52
2018-07-02T06:37:25.424Z,39.11
2018-07-02T06:39:51.395Z,38.48
2018-07-02T06:42:17.360Z,38.80
2018-07-02T06:44:43.337Z,38.77
2018-07-02T06:47:09.311Z,39.44
2018-07-02T06:49:35.340Z,38.93
2018-07-02T06:52:01.376Z,38.44
2018-07-02T06:54:27.414Z,38.20
2018-07-02T06:56:53.394Z,38.55
2018-07-02T06:59:19.361Z,38.37
2018-07-02T07:01:45.325Z,38.53
2018-07-02T07:04:11.290Z,38.34
2018-07-02T07:06:37.259Z,38.19
2018-07-02T07:09:03.276Z,37.28
2018-07-02T07:11:29.253Z,38.36
2018-07-02T07:13:55.232Z,38.13
2018-07-02T07:16:21.204Z,38.08
2018-07-02T07:18:47.328Z,38.36
2018-07-02T07:21:13.324Z,37.64
2018-07-02T07:23:39.283Z,38.06
2018-07-02T07:26:05.252Z,37.73
2018-07-02T07:28:31.397Z,37.73
2018-07-02T07:30:57.405Z,37.92
2018-07-02T07:33:23.377Z,38.53
2018-07-02T07:35:49.375Z,38.45
2018-07-02T07:38:15.356Z,38.48
2018-07-02T07:40:41.352Z,39.14
2018-07-02T07:43:07.343Z,39.89
2018-07-02T07:45:33.364Z,40.16
2018-07-02T07:47:59.337Z,39.21
2018-07-02T07:50:25.392Z,40.23
2018-07-02T07:52:51.366Z,41.06
2018-07-02T07:55:17.324Z,40.72
2018-07-02T07:57:43.347Z,39.73
2018-07-02T08:00:09.338Z,39.56
2018-07-02T08:02:35.334Z,38.88
2018-07-02T08:05:01.422Z,40.64
2018-07-02T08:07:27.482Z,40.18
2018-07-02T08:09:53.499Z,41.39
2018-07-02T08:12:19.504Z,42.34
2018-07-02T08:14:45.466Z,40.75
2018-07-02T08:17:11.446Z,42.68
2018-07-02T08:19:37.410Z,41.91
2018-07-02T08:22:03.454Z,41.44
2018-07-02T08:24:29.426Z,41.68
2018-07-02T08:26:55.408Z,42.21
2018-07-02T08:29:21.427Z,42.21
2018-07-02T08:31:47.410Z,44.64
2018-07-02T08:34:13.380Z,43.23
2018-07-02T08:36:39.544Z,41.77
2018-07-02T08:39:05.649Z,41.09
2018-07-02T08:41:31.807Z,41.83
2018-07-02T08:43:57.779Z,42.89
2018-07-02T08:46:23.770Z,41.14
2018-07-02T08:48:49.755Z,43.32
2018-07-02T08:51:15.728Z,43.53
2018-07-02T08:53:41.736Z,41.86
2018-07-02T08:56:07.687Z,41.77
2018-07-02T08:58:33.659Z,43.07
2018-07-02T09:00:59.639Z,42.88
2018-07-02T09:03:25.607Z,44.32
2018-07-02T09:05:51.552Z,42.73
2018-07-02T09:08:17.529Z,43.46
2018-07-02T09:10:43.525Z,43.45
2018-07-02T09:13:09.473Z,43.43
2018-07-02T09:15:35.448Z,44.41
2018-07-02T09:18:01.404Z,42.53
2018-07-02T09:20:27.379Z,42.94
2018-07-02T09:22:53.356Z,44.00
2018-07-02T09:25:19.326Z,42.44
2018-07-02T09:27:45.300Z,43.23
2018-07-02T09:30:11.271Z,43.82
2018-07-02T09:32:37.268Z,43.73
2018-07-02T09:35:03.234Z,41.98
2018-07-02T09:37:29.214Z,42.60
2018-07-02T09:39:55.208Z,43.88
2018-07-02T09:42:21.193Z,44.73
2018-07-02T09:44:47.172Z,45.25
2018-07-02T09:47:13.143Z,44.34
2018-07-02T09:49:39.104Z,44.79
2018-07-02T09:52:05.176Z,45.25
2018-07-02T09:54:31.138Z,45.50
2018-07-02T09:56:57.116Z,45.77
2018-07-02T09:59:23.181Z,45.11
2018-07-02T10:01:49.169Z,43.94
2018-07-02T10:04:15.121Z,45.81
2018-07-02T10:06:41.184Z,45.15
2018-07-02T10:09:07.106Z,44.15
2018-07-02T10:11:33.100Z,43.54
2018-07-02T10:13:59.022Z,45.04
2018-07-02T10:16:24.980Z,44.63
2018-07-02T10:18:50.950Z,45.04
2018-07-02T10:21:16.964Z,44.85
2018-07-02T10:23:43.045Z,45.10
2018-07-02T10:26:08.936Z,45.17
2018-07-02T10:28:34.915Z,43.43
2018-07-02T10:31:00.926Z,44.07
2018-07-02T10:33:26.835Z,41.91
2018-07-02T10:35:52.809Z,44.17
2018-07-02T10:38:18.759Z,43.98
2018-07-02T10:40:44.731Z,45.43
2018-07-02T10:43:10.690Z,45.71
2018-07-02T10:45:36.667Z,45.25
2018-07-02T10:48:02.611Z,42.35
2018-07-02T10:50:28.645Z,43.82
2018-07-02T10:52:54.551Z,45.29
2018-07-02T10:55:20.518Z,45.97
2018-07-02T10:57:46.552Z,45.83
2018-07-02T11:00:12.552Z,45.31
2018-07-02T11:02:38.556Z,44.05
2018-07-02T11:05:04.524Z,45.23
2018-07-02T11:07:30.506Z,41.95
2018-07-02T11:09:56.567Z,44.25
2018-07-02T11:12:22.560Z,45.07
2018-07-02T11:14:48.655Z,44.93
2018-07-02T11:17:14.652Z,45.36
2018-07-02T11:19:40.612Z,44.51
2018-07-02T11:22:06.584Z,45.11
2018-07-02T11:24:32.541Z,45.22
2018-07-02T11:26:58.538Z,45.19
2018-07-02T11:29:24.509Z,44.72
2018-07-02T11:31:50.496Z,46.29
2018-07-02T11:34:16.473Z,46.07
2018-07-02T11:36:42.431Z,44.62
2018-07-02T11:39:08.407Z,44.98
2018-07-02T11:41:34.443Z,44.55
2018-07-02T11:44:00.430Z,44.77
2018-07-02T11:46:26.394Z,43.80
2018-07-02T11:48:52.374Z,44.46
2018-07-02T11:51:18.361Z,45.16
2018-07-02T11:53:44.399Z,41.82
2018-07-02T11:56:10.362Z,42.32
2018-07-02T11:58:36.326Z,45.27
2018-07-02T12:01:02.417Z,44.61
2018-07-02T12:03:28.398Z,44.71
2018-07-02T12:05:54.390Z,45.51
2018-07-02T12:08:20.356Z,44.56
2018-07-02T12:10:46.311Z,45.55
2018-07-02T12:13:12.266Z,44.97
2018-07-02T12:15:38.238Z,45.89
2018-07-02T12:18:04.269Z,44.64
2018-07-02T12:20:30.219Z,45.30
2018-07-02T12:22:56.171Z,44.75
2018-07-02T12:25:22.126Z,45.18
2018-07-02T12:27:48.083Z,45.63
2018-07-02T12:30:14.087Z,44.45
2018-07-02T12:32:40.060Z,45.81
2018-07-02T12:35:06.021Z,44.48
2018-07-02T12:37:31.975Z,44.77
2018-07-02T12:39:57.949Z,43.01
2018-07-02T12:42:23.957Z,43.82
2018-07-02T12:44:49.946Z,44.75
2018-07-02T12:47:15.923Z,42.56
2018-07-02T12:49:41.902Z,44.20
2018-07-02T12:52:07.883Z,44.61
2018-07-02T12:54:33.849Z,43.50
2018-07-02T12:56:59.832Z,41.59
2018-07-02T12:59:25.841Z,44.52
2018-07-02T13:01:51.919Z,45.04
2018-07-02T13:04:17.961Z,45.13
2018-07-02T13:06:43.942Z,47.13
2018-07-02T13:09:09.931Z,47.02
2018-07-02T13:11:35.916Z,46.37
2018-07-02T13:14:01.897Z,47.10
2018-07-02T13:16:27.971Z,46.83
2018-07-02T13:18:54.022Z,47.55
2018-07-02T13:21:20.059Z,46.62
2018-07-02T13:23:45.999Z,47.01
2018-07-02T13:26:12.074Z,46.86
2018-07-02T13:28:38.050Z,45.41
2018-07-02T13:31:04.044Z,45.60
2018-07-02T13:33:30.035Z,47.28
2018-07-02T13:35:56.024Z,47.78
2018-07-02T13:38:22.009Z,46.78
2018-07-02T13:40:47.991Z,47.21
2018-07-02T13:43:14.096Z,47.18
2018-07-02T13:45:40.069Z,47.67
2018-07-02T13:48:06.115Z,46.77
2018-07-02T13:50:32.099Z,47.17
2018-07-02T13:52:58.075Z,47.37
2018-07-02T13:55:24.071Z,47.37
2018-07-02T13:57:49.996Z,47.21
2018-07-02T14:00:16.050Z,46.77
2018-07-02T14:02:42.022Z,47.02
2018-07-02T14:05:07.970Z,46.51
2018-07-02T14:07:33.967Z,47.05
2018-07-02T14:09:59.957Z,46.33
2018-07-02T14:12:26.019Z,46.61
2018-07-02T14:14:52.044Z,47.26
2018-07-02T14:17:18.016Z,47.29
2018-07-02T14:19:43.983Z,47.18
2018-07-02T14:22:09.973Z,47.58
2018-07-02T14:24:35.946Z,46.86
2018-07-02T14:27:01.967Z,47.99
2018-07-02T14:29:27.945Z,47.80
2018-07-02T14:31:53.944Z,47.68
2018-07-02T14:34:19.913Z,47.30
2018-07-02T14:36:45.876Z,46.64
2018-07-02T14:39:11.903Z,46.96
2018-07-02T14:41:37.858Z,47.35
2018-07-02T14:44:03.823Z,47.41
2018-07-02T14:46:29.801Z,46.86
2018-07-02T14:48:55.776Z,47.39
2018-07-02T14:51:21.741Z,46.89
2018-07-02T14:53:47.720Z,46.96
2018-07-02T14:56:13.689Z,47.45
2018-07-02T14:58:39.756Z,46.85
2018-07-02T15:01:05.735Z,46.84
2018-07-02T15:03:31.717Z,47.64
2018-07-02T15:05:57.694Z,46.56
2018-07-02T15:08:23.653Z,48.18
2018-07-02T15:10:49.631Z,47.56
2018-07-02T15:13:15.604Z,47.06
2018-07-02T15:15:41.587Z,48.22
2018-07-02T15:18:07.594Z,47.59
2018-07-02T15:20:33.529Z,46.82
2018-07-02T15:22:59.560Z,47.69
2018-07-02T15:25:25.513Z,47.86
2018-07-02T15:27:51.507Z,48.13
2018-07-02T15:30:17.468Z,48.15
2018-07-02T15:32:43.569Z,47.81
2018-07-02T15:35:09.553Z,47.00
2018-07-02T15:37:35.567Z,47.58
2018-07-02T15:40:01.528Z,48.69
2018-07-02T15:42:27.515Z,47.62
2018-07-02T15:44:53.524Z,46.96
2018-07-02T15:47:19.642Z,48.55
2018-07-02T15:49:45.624Z,49.03
2018-07-02T15:52:11.593Z,48.24
2018-07-02T15:54:37.572Z,48.05
2018-07-02T15:57:03.543Z,47.83
2018-07-02T15:59:29.528Z,47.72
2018-07-02T16:01:55.490Z,47.71
2018-07-02T16:04:21.504Z,47.86
2018-07-02T16:06:47.456Z,48.06
2018-07-02T16:09:13.533Z,48.25
2018-07-02T16:11:39.527Z,47.41
2018-07-02T16:14:05.519Z,47.45
2018-07-02T16:16:31.504Z,47.43
2018-07-02T16:18:57.477Z,46.94
2018-07-02T16:21:23.453Z,47.37
2018-07-02T16:23:49.430Z,47.96
2018-07-02T16:26:15.411Z,48.83
2018-07-02T16:28:41.401Z,48.76
2018-07-02T16:31:07.389Z,48.30
2018-07-02T16:33:33.370Z,48.35
2018-07-02T16:35:59.372Z,49.18
2018-07-02T16:38:25.332Z,48.33
2018-07-02T16:40:51.308Z,48.46
2018-07-02T16:43:17.267Z,47.90
2018-07-02T16:45:43.261Z,48.73
2018-07-02T16:48:09.253Z,47.90
2018-07-02T16:50:35.250Z,47.30
2018-07-02T16:53:01.238Z,47.80
2018-07-02T16:55:27.226Z,47.22
2018-07-02T16:57:53.248Z,48.28
2018-07-02T17:00:19.244Z,46.35
2018-07-02T17:02:45.236Z,42.05
2018-07-02T17:05:11.244Z,45.58
2018-07-02T17:07:37.255Z,45.84
2018-07-02T17:10:03.271Z,46.33
2018-07-02T17:12:29.251Z,46.84
2018-07-02T17:14:55.221Z,46.93
2018-07-02T17:17:21.216Z,46.98
2018-07-02T17:19:47.288Z,46.01
2018-07-02T17:22:13.388Z,47.20
2018-07-02T17:24:39.398Z,47.12
2018-07-02T17:27:05.360Z,46.56
2018-07-02T17:29:31.392Z,47.14
2018-07-02T17:31:57.364Z,45.98
2018-07-02T17:34:23.342Z,47.07
2018-07-02T17:36:49.320Z,46.09
2018-07-02T17:39:15.375Z,45.81
2018-07-02T17:41:41.370Z,45.39
2018-07-02T17:44:07.404Z,45.99
2018-07-02T17:46:33.394Z,45.86
2018-07-02T17:48:59.363Z,46.16
2018-07-02T17:51:25.346Z,45.85
2018-07-02T17:53:51.331Z,45.38
2018-07-02T17:56:17.300Z,45.13
2018-07-02T17:58:43.283Z,45.92
2018-07-02T18:01:09.322Z,45.11
2018-07-02T18:03:35.253Z,45.89
2018-07-02T18:06:01.338Z,46.26
2018-07-02T18:08:27.351Z,46.33
2018-07-02T18:10:53.327Z,46.60
2018-07-02T18:13:19.384Z,46.08
2018-07-02T18:15:45.429Z,45.47
2018-07-02T18:18:11.399Z,45.72
2018-07-02T18:20:37.444Z,45.77
2018-07-02T18:23:03.399Z,46.45
2018-07-02T18:25:29.412Z,46.42
2018-07-02T18:27:55.572Z,45.66
2018-07-02T18:30:21.536Z,46.14
2018-07-02T18:32:47.524Z,45.88
2018-07-02T18:35:13.577Z,45.97
2018-07-02T18:37:39.570Z,46.28
2018-07-02T18:40:05.539Z,45.94
2018-07-02T18:42:31.528Z,46.88
2018-07-02T18:44:57.526Z,46.84
2018-07-02T18:47:23.532Z,46.37
2018-07-02T18:49:49.780Z,47.18
2018-07-02T18:52:15.770Z,46.17
2018-07-02T18:54:41.912Z,45.82
2018-07-02T18:57:07.919Z,46.04
2018-07-02T18:59:33.903Z,44.84
2018-07-02T19:01:59.896Z,45.75
2018-07-02T19:04:25.861Z,46.62
2018-07-02T19:06:52.775Z,45.69
2018-07-02T19:09:18.829Z,45.39
2018-07-02T19:11:44.827Z,45.34
2018-07-02T19:14:10.860Z,46.44
2018-07-02T19:16:36.937Z,45.36
2018-07-02T19:19:02.992Z,45.38
2018-07-02T19:21:28.999Z,45.85
2018-07-02T19:23:55.014Z,45.56
2018-07-02T19:26:21.000Z,45.39
2018-07-02T19:28:46.960Z,46.48
2018-07-02T19:31:13.014Z,46.37
2018-07-02T19:33:39.012Z,46.40
2018-07-02T19:36:05.059Z,45.64
2018-07-02T19:38:31.143Z,46.23
2018-07-02T19:40:57.241Z,45.74
2018-07-02T19:43:23.375Z,45.92
2018-07-02T19:45:49.408Z,46.14
2018-07-02T19:48:16.035Z,44.98
2018-07-02T19:50:42.121Z,44.88
2018-07-02T19:53:08.145Z,46.20
2018-07-02T19:55:34.140Z,44.59
2018-07-02T19:58:00.117Z,45.09
2018-07-02T20:00:26.224Z,45.17
2018-07-02T20:02:52.322Z,45.67
2018-07-02T20:05:18.297Z,46.44
2018-07-02T20:07:44.309Z,45.53
2018-07-02T20:10:10.330Z,45.26
2018-07-02T20:12:36.368Z,44.42
2018-07-02T20:15:02.370Z,45.81
2018-07-02T20:17:28.339Z,45.27
2018-07-02T20:19:54.445Z,45.07
2018-07-02T20:22:20.461Z,44.33
2018-07-02T20:24:46.442Z,43.96
2018-07-02T20:27:12.489Z,45.39
2018-07-02T20:29:38.507Z,44.06
2018-07-02T20:32:04.481Z,43.26
2018-07-02T20:34:30.479Z,42.19
2018-07-02T20:36:56.786Z,43.81
2018-07-02T20:39:22.779Z,42.11
2018-07-02T20:41:48.840Z,42.27
2018-07-02T20:44:14.844Z,42.52
2018-07-02T20:46:40.838Z,41.09
2018-07-02T20:49:06.866Z,42.18
2018-07-02T20:51:32.937Z,41.31
2018-07-02T20:53:58.995Z,41.16
2018-07-02T20:56:24.970Z,41.36
2018-07-02T20:58:50.950Z,42.15
2018-07-02T21:01:16.957Z,42.58
2018-07-02T21:03:42.961Z,41.31
2018-07-02T21:06:08.937Z,41.57
2018-07-02T21:08:34.920Z,41.87
2018-07-02T21:11:00.970Z,40.95
2018-07-02T21:13:27.327Z,41.90
2018-07-02T21:15:53.393Z,42.13
2018-07-02T21:18:19.588Z,41.27
2018-07-02T21:20:45.600Z,40.91
2018-07-02T21:23:11.591Z,40.24
2018-07-02T21:25:37.588Z,40.32
2018-07-02T21:28:03.574Z,41.18
2018-07-02T21:30:29.565Z,42.87
2018-07-02T21:32:55.571Z,42.88
2018-07-02T21:35:21.551Z,43.18
2018-07-02T21:37:47.531Z,43.38
2018-07-02T21:40:13.508Z,42.30
2018-07-02T21:42:39.500Z,42.65
2018-07-02T21:45:05.462Z,41.95
2018-07-02T21:47:31.492Z,42.86
2018-07-02T21:49:57.511Z,40.84
2018-07-02T21:52:23.512Z,43.47
2018-07-02T21:54:49.511Z,43.65
2018-07-02T21:57:15.538Z,42.30
2018-07-02T21:59:41.770Z,42.25
2018-07-02T22:02:07.781Z,41.40
2018-07-02T22:04:33.745Z,41.16
2018-07-02T22:06:59.727Z,39.94
2018-07-02T22:09:25.684Z,39.61
2018-07-02T22:11:51.680Z,39.80
2018-07-02T22:14:17.749Z,39.95
2018-07-02T22:16:43.983Z,40.81
2018-07-02T22:19:09.943Z,39.94
2018-07-02T22:21:35.905Z,40.39
2018-07-02T22:24:02.178Z,41.67
2018-07-02T22:26:28.188Z,40.06
2018-07-02T22:28:54.153Z,39.68
2018-07-02T22:31:20.137Z,39.99
2018-07-02T22:33:46.133Z,40.37
2018-07-02T22:36:12.342Z,40.36
2018-07-02T22:38:38.321Z,41.13
2018-07-02T22:41:04.324Z,39.79
2018-07-02T22:43:30.545Z,40.32
2018-07-02T22:45:56.449Z,39.89
2018-07-02T22:48:22.672Z,39.97
2018-07-02T22:50:48.681Z,40.23
2018-07-02T22:53:14.705Z,40.59
2018-07-02T22:55:40.693Z,40.44
2018-07-02T22:58:06.668Z,39.48
2018-07-02T23:00:32.635Z,40.99
2018-07-02T23:02:58.606Z,39.51
2018-07-02T23:05:24.595Z,41.00
2018-07-02T23:07:50.568Z,41.13
2018-07-02T23:10:16.567Z,40.26
2018-07-02T23:12:42.539Z,40.51
2018-07-02T23:15:08.496Z,40.52
2018-07-02T23:17:34.501Z,40.52
2018-07-02T23:20:00.517Z,40.00
2018-07-02T23:22:26.520Z,40.35
2018-07-02T23:24:52.535Z,40.46
2018-07-02T23:27:18.535Z,39.49
2018-07-02T23:29:44.539Z,39.28
2018-07-02T23:32:10.511Z,39.77
2018-07-02T23:34:36.503Z,40.17
2018-07-02T23:37:02.756Z,40.40
2018-07-02T23:39:28.749Z,39.91
2018-07-02T23:41:54.732Z,40.93
2018-07-02T23:44:20.734Z,40.94
2018-07-02T23:46:46.705Z,41.56
2018-07-02T23:49:12.684Z,40.56
2018-07-02T23:51:38.683Z,40.50
2018-07-02T23:54:04.690Z,40.79
2018-07-02T23:56:30.679Z,40.04
2018-07-02T23:58:56.655Z,40.47
